Time;durP1;ratioP1;P1;durP2;ratioP2;P2;SDS_P1;SDS_P2;PMS_P1;PMS_P2;Temp;Humidity;BMP_temperature;BMP_pressure;BME280_temperature;BME280_humidity;BME280_pressure;Samples;Min_cycle;Max_cycle;Signal;HPM_P1;HPM_P2
2022/06/21 00:07:37;;;;;;;;;;;20.50;52.30;;;;;;20916107;28;20275;-74
2022/06/21 00:17:38;;;;;;;;;;;20.50;52.50;;;;;;20898895;28;19933;-75
2022/06/21 00:27:38;;;;;;;;;;;20.50;52.50;;;;;;20898260;28;20129;-74
2022/06/21 00:37:40;;;;;;;;;;;20.40;52.70;;;;;;20914221;28;20271;-74
2022/06/21 00:47:53;;;;;;;;;;;20.40;52.80;;;;;;20905866;28;19948;-74
2022/06/21 00:57:53;;;;;;;;;;;20.40;52.80;;;;;;20894629;28;19921;-74
2022/06/21 01:07:54;;;;;;;;;;;20.40;53.00;;;;;;20912182;28;19974;-74
2022/06/21 01:17:56;;;;;;;;;;;20.40;53.10;;;;;;20910694;28;19921;-74
2022/06/21 01:27:56;;;;;;;;;;;20.30;53.10;;;;;;20897230;28;19913;-73
2022/06/21 01:37:57;;;;;;;;;;;20.30;53.30;;;;;;20925672;28;19928;-74
2022/06/21 01:47:57;;;;;;;;;;;20.30;53.40;;;;;;20902003;28;19916;-74
2022/06/21 01:57:58;;;;;;;;;;;20.20;53.40;;;;;;20907190;28;20383;-74
2022/06/21 02:07:59;;;;;;;;;;;20.10;53.40;;;;;;20906662;28;19917;-74
2022/06/21 02:18:00;;;;;;;;;;;20.10;53.50;;;;;;20907107;28;19927;-73
2022/06/21 02:28:02;;;;;;;;;;;20.10;53.60;;;;;;20888832;28;19913;-73
2022/06/21 02:38:03;;;;;;;;;;;20.10;53.70;;;;;;20922182;28;19936;-74
2022/06/21 02:48:05;;;;;;;;;;;20.00;53.70;;;;;;20904362;28;19912;-74
2022/06/21 02:58:21;;;;;;;;;;;20.00;53.70;;;;;;20903896;28;19921;-74
2022/06/21 03:08:21;;;;;;;;;;;20.00;53.80;;;;;;20907871;28;19912;-74
2022/06/21 03:18:23;;;;;;;;;;;19.90;53.80;;;;;;20904674;28;19979;-74
2022/06/21 03:28:26;;;;;;;;;;;19.90;53.80;;;;;;20918468;28;19913;-74
2022/06/21 03:38:27;;;;;;;;;;;19.90;53.90;;;;;;20920204;28;19924;-74
2022/06/21 03:48:31;;;;;;;;;;;19.80;53.90;;;;;;20917839;28;19924;-74
2022/06/21 03:58:37;;;;;;;;;;;19.70;54.00;;;;;;20900822;28;19924;-74
2022/06/21 04:08:48;;;;;;;;;;;19.70;54.00;;;;;;20916302;28;19917;-73
2022/06/21 04:18:51;;;;;;;;;;;19.70;54.10;;;;;;20916030;28;19931;-77
2022/06/21 04:28:53;;;;;;;;;;;19.70;54.30;;;;;;20896940;28;19914;-77
2022/06/21 04:39:02;;;;;;;;;;;19.60;54.30;;;;;;20896950;28;20290;-75
2022/06/21 04:49:08;;;;;;;;;;;19.60;54.40;;;;;;20872326;28;19920;-74
2022/06/21 04:59:29;;;;;;;;;;;19.70;54.50;;;;;;20906719;28;20235;-74
2022/06/21 05:09:30;;;;;;;;;;;19.60;54.60;;;;;;20903075;28;19916;-74
2022/06/21 05:19:31;;;;;;;;;;;19.60;54.80;;;;;;20893579;28;19921;-71
2022/06/21 05:29:43;;;;;;;;;;;19.60;54.90;;;;;;20910309;28;19919;-71
2022/06/21 05:39:44;;;;;;;;;;;19.60;55.00;;;;;;20885962;28;19921;-72
2022/06/21 05:49:45;;;;;;;;;;;19.70;55.10;;;;;;20881206;28;19919;-73
2022/06/21 05:59:45;;;;;;;;;;;19.70;55.40;;;;;;20890692;28;20278;-73
2022/06/21 06:09:47;;;;;;;;;;;19.70;55.40;;;;;;20907145;28;19959;-73
2022/06/21 06:19:49;;;;;;;;;;;19.70;55.40;;;;;;20889362;28;19929;-75
2022/06/21 06:29:51;;;;;;;;;;;19.80;55.50;;;;;;20921201;28;19924;-75
2022/06/21 06:39:52;;;;;;;;;;;19.90;55.70;;;;;;20905488;28;19925;-73
2022/06/21 06:49:55;;;;;;;;;;;19.90;55.70;;;;;;20894352;28;19953;-74
2022/06/21 06:59:56;;;;;;;;;;;19.90;55.70;;;;;;20903250;28;19928;-74
2022/06/21 07:09:57;;;;;;;;;;;19.90;55.80;;;;;;20894878;28;20379;-75
2022/06/21 07:19:57;;;;;;;;;;;19.90;55.90;;;;;;20920053;28;19969;-75
2022/06/21 07:29:59;;;;;;;;;;;20.00;55.90;;;;;;20913148;28;19949;-75
2022/06/21 07:40:00;;;;;;;;;;;20.00;55.90;;;;;;21272388;22;19972;-74
2022/06/21 07:50:11;;;;;;;;;;;20.10;56.00;;;;;;20885215;28;19979;-74
2022/06/21 08:00:14;;;;;;;;;;;20.10;56.00;;;;;;20865126;28;20015;-73
2022/06/21 08:10:22;;;;;;;;;;;20.20;56.00;;;;;;20873341;28;20355;-74
2022/06/21 08:20:27;;;;;;;;;;;20.20;56.00;;;;;;20898685;28;20286;-74
2022/06/21 08:30:51;;;;;;;;;;;20.20;55.90;;;;;;20862354;28;20401;-73
2022/06/21 08:41:51;;;;;;;;;;;20.20;55.80;;;;;;20876628;28;19920;-73
2022/06/21 08:51:46;;;;;;;;;;;20.30;55.70;;;;;;20908202;28;20004;-73
2022/06/21 09:02:02;;;;;;;;;;;20.30;55.60;;;;;;20877751;28;19924;-73
2022/06/21 09:12:25;;;;;;;;;;;20.30;55.50;;;;;;20890096;28;20267;-73
2022/06/21 09:22:33;;;;;;;;;;;20.30;55.30;;;;;;20866435;28;19927;-73
2022/06/21 09:32:47;;;;;;;;;;;20.30;55.20;;;;;;20875621;28;19920;-71
2022/06/21 09:42:51;;;;;;;;;;;20.30;55.00;;;;;;20870805;28;19924;-72
2022/06/21 09:53:10;;;;;;;;;;;20.40;55.00;;;;;;20885300;28;19924;-72
2022/06/21 10:03:15;;;;;;;;;;;20.40;54.90;;;;;;20869854;28;19927;-72
2022/06/21 10:13:41;;;;;;;;;;;20.40;54.40;;;;;;20873140;28;19959;-72
2022/06/21 10:23:42;;;;;;;;;;;20.40;54.30;;;;;;20849961;28;20302;-73
2022/06/21 10:34:00;;;;;;;;;;;20.40;54.20;;;;;;20885587;28;19963;-73
2022/06/21 10:44:13;;;;;;;;;;;20.50;54.40;;;;;;20853223;28;19921;-75
2022/06/21 10:54:24;;;;;;;;;;;20.50;54.40;;;;;;20870346;28;19955;-70
2022/06/21 11:04:28;;;;;;;;;;;20.50;54.30;;;;;;20870272;28;20285;-70
2022/06/21 11:14:38;;;;;;;;;;;20.50;54.40;;;;;;20885603;28;19935;-71
2022/06/21 11:24:55;;;;;;;;;;;20.40;54.30;;;;;;20886561;28;19921;-72
2022/06/21 11:35:04;;;;;;;;;;;20.40;54.30;;;;;;20868545;28;19920;-71
2022/06/21 11:45:09;;;;;;;;;;;20.40;54.30;;;;;;20862628;28;20011;-72
2022/06/21 11:55:13;;;;;;;;;;;20.40;54.20;;;;;;20901757;28;19932;-72
2022/06/21 12:05:23;;;;;;;;;;;20.40;54.20;;;;;;20918764;28;19921;-72
2022/06/21 12:15:26;;;;;;;;;;;20.50;54.20;;;;;;20863739;28;20367;-74
2022/06/21 12:25:27;;;;;;;;;;;20.50;54.10;;;;;;20870740;28;19972;-73
2022/06/21 12:35:40;;;;;;;;;;;20.50;54.10;;;;;;20863348;28;19924;-73
2022/06/21 12:45:56;;;;;;;;;;;20.50;54.00;;;;;;20899260;28;19943;-74
2022/06/21 12:56:05;;;;;;;;;;;20.50;53.90;;;;;;20884527;28;19917;-75
2022/06/21 13:06:16;;;;;;;;;;;20.60;53.70;;;;;;20864343;28;19975;-76
2022/06/21 13:16:35;;;;;;;;;;;20.60;53.50;;;;;;20868290;28;19921;-77
2022/06/21 13:26:55;;;;;;;;;;;20.70;53.50;;;;;;20894178;28;19999;-78
2022/06/21 13:36:56;;;;;;;;;;;20.70;53.50;;;;;;20898191;28;19921;-75
2022/06/21 13:47:00;;;;;;;;;;;20.90;53.50;;;;;;20858524;28;20010;-75
2022/06/21 13:57:03;;;;;;;;;;;20.80;53.20;;;;;;20872721;28;19921;-77
2022/06/21 14:07:24;;;;;;;;;;;21.00;53.20;;;;;;20866467;28;19913;-75
2022/06/21 14:17:34;;;;;;;;;;;21.20;53.20;;;;;;20888620;28;20378;-74
2022/06/21 14:27:36;;;;;;;;;;;21.30;53.10;;;;;;20889127;28;19914;-77
2022/06/21 14:37:52;;;;;;;;;;;21.40;52.70;;;;;;20872161;28;19929;-74
2022/06/21 14:48:02;;;;;;;;;;;21.60;52.10;;;;;;20872296;28;19920;-74
2022/06/21 14:58:17;;;;;;;;;;;21.60;51.40;;;;;;20874527;28;20295;-75
2022/06/21 15:08:26;;;;;;;;;;;21.60;51.00;;;;;;20870589;28;19993;-72
2022/06/21 15:18:33;;;;;;;;;;;21.60;51.10;;;;;;20876715;28;19928;-69
2022/06/21 15:28:38;;;;;;;;;;;21.60;51.30;;;;;;20904880;28;19913;-71
2022/06/21 15:38:58;;;;;;;;;;;21.70;51.50;;;;;;20897013;28;20400;-73
2022/06/21 15:59:29;;;;;;;;;;;21.70;50.60;;;;;;20883708;28;19925;-70
2022/06/21 16:09:34;;;;;;;;;;;21.70;50.30;;;;;;20864443;28;19920;-70
2022/06/21 16:19:35;;;;;;;;;;;21.70;50.60;;;;;;20872436;28;19921;-74
2022/06/21 16:29:43;;;;;;;;;;;21.70;50.80;;;;;;20888096;28;19912;-73
2022/06/21 16:39:51;;;;;;;;;;;21.70;51.00;;;;;;20896866;28;19921;-72
2022/06/21 16:49:56;;;;;;;;;;;21.70;51.30;;;;;;20880197;28;19967;-72
2022/06/21 16:59:56;;;;;;;;;;;21.70;51.50;;;;;;20880620;28;19920;-69
2022/06/21 17:09:59;;;;;;;;;;;21.60;51.70;;;;;;20867557;28;20024;-71
2022/06/21 17:20:12;;;;;;;;;;;21.60;52.00;;;;;;20893985;28;20062;-72
2022/06/21 17:30:15;;;;;;;;;;;21.60;52.20;;;;;;20892778;28;19963;-73
2022/06/21 17:40:24;;;;;;;;;;;21.60;52.30;;;;;;20875280;28;19921;-77
2022/06/21 17:50:27;;;;;;;;;;;21.60;52.40;;;;;;20874509;28;19913;-72
2022/06/21 18:00:30;;;;;;;;;;;21.60;52.30;;;;;;20857739;28;19928;-71
2022/06/21 18:10:49;;;;;;;;;;;21.70;52.20;;;;;;20856384;28;20296;-72
2022/06/21 18:20:52;;;;;;;;;;;21.70;52.10;;;;;;20875133;28;19921;-71
2022/06/21 18:31:09;;;;;;;;;;;21.70;52.20;;;;;;20872741;28;19938;-70
2022/06/21 18:41:17;;;;;;;;;;;21.60;52.30;;;;;;20868935;28;19921;-70
2022/06/21 18:51:19;;;;;;;;;;;21.60;52.50;;;;;;20869878;28;19921;-71
2022/06/21 19:01:21;;;;;;;;;;;21.60;52.70;;;;;;20860867;28;19928;-71
2022/06/21 19:11:40;;;;;;;;;;;21.50;52.80;;;;;;20854050;28;20062;-71
2022/06/21 19:21:47;;;;;;;;;;;21.40;52.90;;;;;;20889915;28;19925;-70
2022/06/21 19:31:49;;;;;;;;;;;21.40;53.00;;;;;;20867348;28;19917;-71
2022/06/21 19:41:56;;;;;;;;;;;21.40;53.20;;;;;;20854357;28;19955;-71
2022/06/21 19:52:08;;;;;;;;;;;21.30;53.20;;;;;;20899890;28;19920;-72
2022/06/21 20:02:13;;;;;;;;;;;21.30;53.20;;;;;;20883863;28;19933;-71
2022/06/21 20:12:19;;;;;;;;;;;21.30;53.30;;;;;;20880069;28;19944;-71
2022/06/21 20:22:23;;;;;;;;;;;21.30;53.50;;;;;;20878055;28;19927;-72
2022/06/21 20:32:27;;;;;;;;;;;21.20;53.50;;;;;;20879024;28;19948;-72
2022/06/21 20:53:12;;;;;;;;;;;21.20;53.70;;;;;;20895700;28;19913;-71
2022/06/21 21:03:13;;;;;;;;;;;21.20;53.80;;;;;;20908946;28;19971;-71
2022/06/21 21:13:18;;;;;;;;;;;21.10;53.90;;;;;;20891544;28;19935;-70
2022/06/21 21:23:20;;;;;;;;;;;21.20;54.00;;;;;;20891770;28;19928;-71
2022/06/21 21:33:29;;;;;;;;;;;21.10;54.00;;;;;;20856274;28;19916;-71
2022/06/21 21:43:56;;;;;;;;;;;21.10;54.10;;;;;;20889799;28;19933;-71
2022/06/21 21:54:06;;;;;;;;;;;21.00;54.10;;;;;;20901794;28;19913;-71
2022/06/21 22:04:17;;;;;;;;;;;21.00;54.20;;;;;;20868204;28;19921;-71
2022/06/21 22:14:37;;;;;;;;;;;21.10;54.20;;;;;;20869890;28;19916;-72
2022/06/21 22:24:37;;;;;;;;;;;21.00;54.20;;;;;;20883832;28;19936;-71
2022/06/21 22:34:38;;;;;;;;;;;21.00;54.30;;;;;;20886369;28;19924;-71
2022/06/21 22:44:40;;;;;;;;;;;21.00;54.30;;;;;;20868557;28;20448;-71
2022/06/21 22:54:41;;;;;;;;;;;21.00;54.30;;;;;;20885694;28;19920;-71
2022/06/21 23:04:46;;;;;;;;;;;20.90;54.30;;;;;;20867824;28;19920;-72
2022/06/21 23:14:53;;;;;;;;;;;21.00;54.40;;;;;;20851846;28;20608;-70
2022/06/21 23:24:54;;;;;;;;;;;20.90;55.00;;;;;;20865456;28;19921;-72
2022/06/21 23:34:58;;;;;;;;;;;20.90;54.40;;;;;;20866853;28;19917;-71
2022/06/21 23:45:16;;;;;;;;;;;20.90;54.40;;;;;;20896569;28;20404;-70
2022/06/21 23:55:17;;;;;;;;;;;20.90;54.50;;;;;;20866102;28;19971;-71
